Time;durP1;ratioP1;P1;durP2;ratioP2;P2;SDS_P1;SDS_P2;PMS_P1;PMS_P2;Temp;Humidity;BMP_temperature;BMP_pressure;BME280_temperature;BME280_humidity;BME280_pressure;Samples;Min_cycle;Max_cycle;Signal;HPM_P1;HPM_P2
2023/03/20 00:01:28;;;;;;;12.00;7.22;;;4.20;99.90;;;;;;5055852;28;20482;-76
2023/03/20 00:03:56;;;;;;;12.75;7.20;;;4.20;99.90;;;;;;5054543;28;20033;-76
2023/03/20 00:06:24;;;;;;;12.68;7.95;;;4.10;99.90;;;;;;5055292;28;20774;-76
2023/03/20 00:08:52;;;;;;;14.75;7.68;;;4.00;99.90;;;;;;5055478;28;20017;-76
2023/03/20 00:11:30;;;;;;;10.38;7.05;;;4.00;99.90;;;;;;5055768;28;20071;-75
2023/03/20 00:13:58;;;;;;;12.82;7.20;;;4.10;99.90;;;;;;5056087;28;20021;-76
2023/03/20 00:16:30;;;;;;;11.88;7.40;;;3.90;99.90;;;;;;5053904;28;20344;-76
2023/03/20 00:18:56;;;;;;;11.77;7.47;;;4.00;99.90;;;;;;5055105;28;20029;-76
2023/03/20 00:21:21;;;;;;;13.73;7.35;;;3.90;99.90;;;;;;5053954;28;20039;-76
2023/03/20 00:23:48;;;;;;;13.80;7.55;;;3.80;99.90;;;;;;5056572;28;20104;-76
2023/03/20 00:26:17;;;;;;;15.82;7.35;;;3.80;99.90;;;;;;5055205;28;20032;-76
2023/03/20 00:28:45;;;;;;;11.60;7.53;;;3.70;99.90;;;;;;5053601;28;20057;-76
2023/03/20 00:31:25;;;;;;;14.05;8.23;;;3.60;99.90;;;;;;5053965;28;20395;-76
2023/03/20 00:33:53;;;;;;;13.85;7.75;;;3.60;99.90;;;;;;5055437;28;20434;-76
2023/03/20 00:36:19;;;;;;;14.48;6.65;;;3.70;99.90;;;;;;5053814;28;20040;-75
2023/03/20 00:38:45;;;;;;;13.73;8.15;;;3.70;99.90;;;;;;5054797;28;20029;-76
2023/03/20 00:41:19;;;;;;;12.98;7.43;;;3.70;99.90;;;;;;5055353;28;20530;-76
2023/03/20 00:43:48;;;;;;;13.13;7.28;;;3.80;99.90;;;;;;5053772;28;20393;-76
2023/03/20 00:46:14;;;;;;;14.35;7.32;;;3.80;99.90;;;;;;5054641;28;20060;-77
2023/03/20 00:48:42;;;;;;;13.90;7.78;;;3.70;99.90;;;;;;5053183;28;20061;-76
2023/03/20 00:51:08;;;;;;;12.45;7.15;;;3.80;99.90;;;;;;5054798;28;20045;-76
2023/03/20 00:53:34;;;;;;;14.05;8.10;;;3.80;99.90;;;;;;5053562;28;20028;-76
2023/03/20 00:56:00;;;;;;;13.07;7.72;;;3.70;99.90;;;;;;5053511;28;20024;-76
2023/03/20 00:58:26;;;;;;;13.90;7.65;;;3.80;99.90;;;;;;5053433;28;20393;-76
2023/03/20 01:00:52;;;;;;;15.85;8.15;;;3.70;99.90;;;;;;5054809;28;20025;-77
2023/03/20 01:03:20;;;;;;;11.38;7.88;;;3.70;99.90;;;;;;5054735;28;20051;-79
2023/03/20 01:05:47;;;;;;;18.88;8.05;;;3.60;99.90;;;;;;5052670;28;20049;-76
2023/03/20 01:08:15;;;;;;;12.32;8.27;;;3.60;99.90;;;;;;5052711;28;20032;-76
2023/03/20 01:10:42;;;;;;;12.00;7.60;;;3.60;99.90;;;;;;5054841;28;20147;-76
2023/03/20 01:13:29;;;;;;;18.38;8.20;;;3.60;99.90;;;;;;5053531;28;20021;-76
2023/03/20 01:15:59;;;;;;;13.93;7.20;;;3.70;99.90;;;;;;5054329;28;20029;-76
2023/03/20 01:18:26;;;;;;;11.10;7.55;;;3.60;99.90;;;;;;5054334;28;20021;-76
2023/03/20 01:20:52;;;;;;;13.35;8.18;;;3.70;99.90;;;;;;5053249;28;20053;-75
2023/03/20 01:23:21;;;;;;;14.90;8.82;;;3.60;99.90;;;;;;5054691;28;20102;-75
2023/03/20 01:25:47;;;;;;;13.10;7.43;;;3.60;99.90;;;;;;5053315;28;20029;-77
2023/03/20 01:28:19;;;;;;;14.90;7.22;;;3.60;99.90;;;;;;5053114;28;20021;-76
2023/03/20 01:30:45;;;;;;;12.15;7.28;;;3.60;99.90;;;;;;5055001;28;20025;-76
2023/03/20 01:33:17;;;;;;;17.60;8.98;;;3.70;99.90;;;;;;5054662;28;20040;-76
2023/03/20 01:35:44;;;;;;;14.85;8.43;;;3.70;99.90;;;;;;5052773;28;20025;-76
2023/03/20 01:38:19;;;;;;;11.70;7.75;;;3.70;99.90;;;;;;5053907;28;20028;-76
2023/03/20 01:40:58;;;;;;;12.52;7.50;;;3.70;99.90;;;;;;5052970;28;20659;-76
2023/03/20 01:43:25;;;;;;;12.70;7.20;;;3.60;99.90;;;;;;5054213;28;20029;-76
2023/03/20 01:46:05;;;;;;;10.88;7.28;;;3.60;99.90;;;;;;5052743;28;20488;-76
2023/03/20 01:48:51;;;;;;;16.00;6.93;;;3.60;99.90;;;;;;5053545;28;20195;-76
2023/03/20 01:51:17;;;;;;;12.82;7.78;;;3.60;99.90;;;;;;5042267;28;20029;-76
2023/03/20 01:53:45;;;;;;;13.02;6.85;;;3.70;99.90;;;;;;5053856;28;20028;-76
2023/03/20 01:56:14;;;;;;;13.43;7.50;;;3.60;99.90;;;;;;5052106;28;20124;-77
2023/03/20 01:58:44;;;;;;;13.57;7.45;;;3.60;99.90;;;;;;5051695;28;20021;-77
2023/03/20 02:01:12;;;;;;;18.52;6.93;;;3.70;99.90;;;;;;5052244;28;20112;-76
2023/03/20 02:03:39;;;;;;;14.02;8.02;;;3.70;99.90;;;;;;5053795;28;20036;-77
2023/03/20 02:06:06;;;;;;;11.18;7.13;;;3.70;99.90;;;;;;5060695;28;20021;-76
2023/03/20 02:08:40;;;;;;;12.55;7.15;;;3.80;99.90;;;;;;5077438;28;20025;-75
2023/03/20 02:11:05;;;;;;;9.32;6.20;;;3.90;99.90;;;;;;5077435;28;20072;-75
2023/03/20 02:13:33;;;;;;;11.75;7.18;;;3.90;99.90;;;;;;5058387;28;20129;-76
2023/03/20 02:16:06;;;;;;;12.43;7.85;;;3.90;99.90;;;;;;5055896;28;20406;-76
2023/03/20 02:18:33;;;;;;;12.27;6.82;;;3.80;99.90;;;;;;5055582;28;20025;-76
2023/03/20 02:21:20;;;;;;;14.98;7.90;;;3.80;99.90;;;;;;5052985;28;20032;-76
2023/03/20 02:24:23;;;;;;;14.25;6.55;;;3.90;99.90;;;;;;5052927;28;20031;-75
2023/03/20 02:27:24;;;;;;;11.27;7.28;;;3.90;99.90;;;;;;5053352;28;20025;-78
2023/03/20 02:30:18;;;;;;;13.43;8.18;;;4.00;99.90;;;;;;5053546;28;20092;-76
2023/03/20 02:33:15;;;;;;;12.85;7.57;;;4.10;99.90;;;;;;5052359;28;20021;-76
2023/03/20 02:35:58;;;;;;;14.68;6.93;;;4.10;99.90;;;;;;5051926;28;20645;-75
2023/03/20 02:38:50;;;;;;;11.27;7.10;;;4.10;99.90;;;;;;5051702;28;20028;-76
2023/03/20 02:41:34;;;;;;;14.48;7.28;;;4.20;99.90;;;;;;5053194;28;20017;-76
2023/03/20 02:44:03;;;;;;;11.82;6.82;;;4.20;99.90;;;;;;5052788;28;20033;-76
2023/03/20 02:47:02;;;;;;;14.38;7.93;;;4.20;99.90;;;;;;5050869;28;20028;-76
2023/03/20 02:49:43;;;;;;;14.70;7.65;;;4.20;99.90;;;;;;5052880;28;20028;-76
2023/03/20 02:52:46;;;;;;;10.60;6.97;;;4.20;99.90;;;;;;5052144;28;20428;-76
2023/03/20 02:55:33;;;;;;;11.07;7.25;;;4.20;99.90;;;;;;5052753;28;20017;-76
2023/03/20 02:58:14;;;;;;;16.45;9.02;;;4.20;99.90;;;;;;5052209;28;20021;-76
2023/03/20 03:01:04;;;;;;;19.17;8.30;;;4.30;99.90;;;;;;5053453;28;20028;-77
2023/03/20 03:03:56;;;;;;;17.38;7.88;;;4.30;99.90;;;;;;5052698;28;20025;-77
2023/03/20 03:06:32;;;;;;;12.95;8.05;;;4.30;99.90;;;;;;5051497;28;20075;-76
2023/03/20 03:09:11;;;;;;;14.95;8.60;;;4.30;99.90;;;;;;5051249;28;20021;-76
2023/03/20 03:11:42;;;;;;;14.88;8.25;;;4.40;99.90;;;;;;5052576;28;20061;-76
2023/03/20 03:14:16;;;;;;;16.83;7.82;;;4.40;99.90;;;;;;5053018;28;20029;-76
2023/03/20 03:16:44;;;;;;;13.38;7.18;;;4.40;99.90;;;;;;5053156;28;20107;-77
2023/03/20 03:19:18;;;;;;;12.77;7.50;;;4.50;99.90;;;;;;5051611;28;20021;-76
2023/03/20 03:21:46;;;;;;;13.82;7.40;;;4.50;99.90;;;;;;5052092;28;20025;-76
2023/03/20 03:24:23;;;;;;;13.95;7.85;;;4.50;99.90;;;;;;5056452;28;20025;-77
2023/03/20 03:26:50;;;;;;;17.27;8.23;;;4.50;99.90;;;;;;5055914;28;20401;-77
2023/03/20 03:29:18;;;;;;;14.13;7.35;;;4.60;99.90;;;;;;5057203;28;20021;-76
2023/03/20 03:31:45;;;;;;;14.25;8.30;;;4.60;99.90;;;;;;5057097;28;20077;-75
2023/03/20 03:34:15;;;;;;;13.55;7.38;;;4.60;99.90;;;;;;5059947;28;20029;-75
2023/03/20 03:36:50;;;;;;;12.00;7.55;;;4.70;99.90;;;;;;5062914;28;20092;-75
2023/03/20 03:39:28;;;;;;;14.20;8.13;;;4.70;99.90;;;;;;5057997;28;20025;-75
2023/03/20 03:42:06;;;;;;;13.48;8.48;;;4.80;99.90;;;;;;5060411;28;20108;-75
2023/03/20 03:44:45;;;;;;;13.98;7.95;;;4.70;99.90;;;;;;5061478;28;20116;-73
2023/03/20 03:47:29;;;;;;;9.85;7.28;;;4.80;99.90;;;;;;5065774;28;20028;-74
2023/03/20 03:50:01;;;;;;;18.65;7.80;;;4.80;99.90;;;;;;5065376;28;20021;-75
2023/03/20 03:52:30;;;;;;;14.77;8.10;;;4.80;99.90;;;;;;5063355;28;20021;-78
2023/03/20 03:54:59;;;;;;;15.73;7.65;;;4.80;99.90;;;;;;5062358;28;20477;-76
2023/03/20 03:57:31;;;;;;;14.48;7.88;;;4.90;99.90;;;;;;5061237;28;20033;-76
2023/03/20 04:00:00;;;;;;;14.02;8.02;;;4.80;99.90;;;;;;5063117;28;20075;-74
2023/03/20 04:02:26;;;;;;;12.95;8.00;;;4.80;99.90;;;;;;5056269;28;20025;-75
2023/03/20 04:04:53;;;;;;;12.07;7.53;;;4.80;99.90;;;;;;5053729;28;20150;-75
2023/03/20 04:07:19;;;;;;;14.35;7.20;;;4.90;99.90;;;;;;5055108;28;20068;-76
2023/03/20 04:09:45;;;;;;;13.70;7.47;;;4.90;99.90;;;;;;5055265;28;20167;-76
2023/03/20 04:12:28;;;;;;;13.85;7.97;;;4.90;99.90;;;;;;5054112;28;20549;-77
2023/03/20 04:14:54;;;;;;;11.50;7.15;;;5.00;99.90;;;;;;5055139;28;20025;-76
2023/03/20 04:17:20;;;;;;;12.30;7.50;;;5.10;99.90;;;;;;5053260;28;20078;-75
2023/03/20 04:19:45;;;;;;;15.70;8.55;;;5.10;99.90;;;;;;5053907;28;20391;-76
2023/03/20 04:22:11;;;;;;;14.65;7.60;;;5.20;99.90;;;;;;5055092;28;20044;-76
2023/03/20 04:24:37;;;;;;;11.15;6.72;;;5.20;99.90;;;;;;5053442;28;20029;-76
2023/03/20 04:27:03;;;;;;;17.95;8.35;;;5.40;99.90;;;;;;5053583;28;20035;-76
2023/03/20 04:29:29;;;;;;;17.38;7.38;;;5.30;99.90;;;;;;5053200;28;20079;-76
2023/03/20 04:31:55;;;;;;;13.90;7.43;;;5.30;99.90;;;;;;5055047;28;20021;-75
2023/03/20 04:34:21;;;;;;;13.38;7.68;;;5.30;99.90;;;;;;5059993;28;20025;-74
2023/03/20 04:36:47;;;;;;;15.88;7.28;;;5.20;99.90;;;;;;5056445;28;20489;-77
2023/03/20 04:39:13;;;;;;;12.65;8.15;;;5.20;99.90;;;;;;5055495;28;20029;-76
2023/03/20 04:41:39;;;;;;;11.55;7.00;;;5.30;99.90;;;;;;5057124;28;20029;-76
2023/03/20 04:44:05;;;;;;;16.48;7.97;;;5.20;99.90;;;;;;5055863;28;20039;-76
2023/03/20 04:46:31;;;;;;;11.35;7.93;;;5.20;99.90;;;;;;5055107;28;20029;-76
2023/03/20 04:48:56;;;;;;;11.88;6.65;;;5.20;99.90;;;;;;5055673;28;20545;-76
2023/03/20 04:51:22;;;;;;;15.00;7.05;;;5.20;99.90;;;;;;5054389;28;20393;-79
2023/03/20 04:53:47;;;;;;;16.05;7.50;;;5.20;99.90;;;;;;5055959;28;20028;-75
2023/03/20 04:56:13;;;;;;;15.95;7.10;;;5.30;99.90;;;;;;5053827;28;20032;-76
2023/03/20 04:58:39;;;;;;;13.00;7.53;;;5.30;99.90;;;;;;5055024;28;20025;-79
2023/03/20 05:01:05;;;;;;;13.25;7.95;;;5.20;99.90;;;;;;5055384;28;20025;-75
2023/03/20 05:03:30;;;;;;;12.35;7.53;;;5.20;99.90;;;;;;5054789;28;20039;-76
2023/03/20 05:05:56;;;;;;;14.60;7.10;;;5.20;99.90;;;;;;5054447;28;20033;-76
2023/03/20 05:08:22;;;;;;;15.73;7.95;;;5.20;99.90;;;;;;5053313;28;20070;-76
2023/03/20 05:10:47;;;;;;;12.05;7.43;;;5.20;99.90;;;;;;5054088;28;20548;-76
2023/03/20 05:13:13;;;;;;;15.18;8.55;;;5.30;99.90;;;;;;5053724;28;20362;-76
2023/03/20 05:15:39;;;;;;;12.50;7.32;;;5.30;99.90;;;;;;5053537;28;20025;-76
2023/03/20 05:18:04;;;;;;;14.85;8.13;;;5.20;99.90;;;;;;5052865;28;20021;-76
2023/03/20 05:20:31;;;;;;;13.02;8.50;;;5.30;99.90;;;;;;5054601;28;20036;-76
2023/03/20 05:22:56;;;;;;;15.52;8.13;;;5.30;99.90;;;;;;5054125;28;20036;-76
2023/03/20 05:25:22;;;;;;;18.58;9.05;;;5.20;99.90;;;;;;5055143;28;20481;-76
2023/03/20 05:27:48;;;;;;;16.17;9.10;;;5.30;99.90;;;;;;5054778;28;20079;-75
2023/03/20 05:30:13;;;;;;;22.73;9.38;;;5.20;99.90;;;;;;5053350;28;20029;-76
2023/03/20 05:32:40;;;;;;;15.45;8.60;;;5.20;99.90;;;;;;5053652;28;20022;-76
2023/03/20 05:35:07;;;;;;;14.25;7.80;;;5.30;99.90;;;;;;5054749;28;20439;-75
2023/03/20 05:37:33;;;;;;;17.40;8.98;;;5.30;99.90;;;;;;5053578;28;20032;-76
2023/03/20 05:39:59;;;;;;;17.50;9.25;;;5.30;99.90;;;;;;5052792;28;20021;-76
2023/03/20 05:42:24;;;;;;;14.82;8.43;;;5.30;99.90;;;;;;5053416;28;20108;-79
2023/03/20 05:44:50;;;;;;;19.52;9.65;;;5.30;99.90;;;;;;5054210;28;20100;-76
2023/03/20 05:47:16;;;;;;;16.00;10.02;;;5.30;99.90;;;;;;5053822;28;20067;-76
2023/03/20 05:49:41;;;;;;;21.40;11.35;;;5.40;99.90;;;;;;5054196;28;20462;-77
2023/03/20 05:52:07;;;;;;;26.02;12.73;;;5.40;99.90;;;;;;5054406;28;20025;-76
2023/03/20 05:54:33;;;;;;;24.08;15.55;;;5.40;99.90;;;;;;5057425;28;20028;-78
2023/03/20 05:56:58;;;;;;;22.70;13.57;;;5.50;99.90;;;;;;5059785;28;20024;-78
2023/03/20 05:59:24;;;;;;;18.48;11.48;;;6.60;99.90;;;;;;5059326;28;20036;-78
2023/03/20 06:01:50;;;;;;;21.83;12.85;;;6.30;99.90;;;;;;5059634;28;20036;-78
2023/03/20 06:04:16;;;;;;;19.48;12.55;;;6.30;99.90;;;;;;5063273;28;20042;-78
2023/03/20 06:06:41;;;;;;;18.88;11.93;;;6.30;99.90;;;;;;5078053;28;20029;-75
2023/03/20 06:09:07;;;;;;;12.02;8.20;;;6.10;99.90;;;;;;5078250;28;20037;-76
2023/03/20 06:11:33;;;;;;;17.55;8.70;;;6.00;99.90;;;;;;5068562;28;20032;-78
2023/03/20 06:13:58;;;;;;;16.75;7.45;;;5.80;99.90;;;;;;5062579;28;20047;-76
2023/03/20 06:16:25;;;;;;;15.88;8.30;;;5.80;99.90;;;;;;5058634;28;20036;-78
2023/03/20 06:18:51;;;;;;;18.50;9.25;;;5.80;99.90;;;;;;5055477;28;20078;-78
2023/03/20 06:21:16;;;;;;;18.42;8.35;;;5.90;99.90;;;;;;5056944;28;20025;-78
2023/03/20 06:23:42;;;;;;;14.60;7.88;;;5.90;99.90;;;;;;5056599;28;20025;-78
2023/03/20 06:26:08;;;;;;;13.75;8.18;;;6.00;99.90;;;;;;5056158;28;20028;-77
2023/03/20 06:28:33;;;;;;;14.30;7.38;;;5.90;99.90;;;;;;5056354;28;20043;-78
2023/03/20 06:30:59;;;;;;;16.42;7.97;;;6.00;99.90;;;;;;5056921;28;20056;-78
2023/03/20 06:33:25;;;;;;;12.80;8.00;;;5.90;99.90;;;;;;5054976;28;20035;-77
2023/03/20 06:35:51;;;;;;;14.85;8.02;;;6.00;99.90;;;;;;5055414;28;20059;-76
2023/03/20 06:38:17;;;;;;;13.13;8.23;;;6.10;99.90;;;;;;5052181;28;20025;-76
2023/03/20 06:40:44;;;;;;;14.60;8.32;;;6.20;99.90;;;;;;5053903;28;20111;-77
2023/03/20 06:43:11;;;;;;;13.93;9.38;;;6.30;99.90;;;;;;5052274;28;20021;-76
2023/03/20 06:45:37;;;;;;;14.10;7.63;;;6.40;99.90;;;;;;5053329;28;20028;-75
2023/03/20 06:48:06;;;;;;;13.63;8.93;;;6.40;99.90;;;;;;5051542;28;20024;-76
2023/03/20 06:50:32;;;;;;;14.73;8.85;;;6.50;99.90;;;;;;5051853;28;20059;-77
2023/03/20 06:52:58;;;;;;;12.55;8.07;;;6.50;99.90;;;;;;5054473;28;20046;-77
2023/03/20 06:55:23;;;;;;;16.95;8.13;;;6.60;99.90;;;;;;5054234;28;20033;-76
2023/03/20 06:57:49;;;;;;;16.70;9.18;;;6.70;99.90;;;;;;5052840;28;20056;-76
2023/03/20 07:00:15;;;;;;;12.85;7.78;;;6.90;99.90;;;;;;5052379;28;20083;-77
2023/03/20 07:02:41;;;;;;;16.80;8.57;;;7.00;99.90;;;;;;5053655;28;20172;-77
2023/03/20 07:05:09;;;;;;;13.55;8.70;;;7.00;99.90;;;;;;5051881;28;20021;-77
2023/03/20 07:07:35;;;;;;;16.70;8.48;;;7.00;99.90;;;;;;5052010;28;20024;-76
2023/03/20 07:10:03;;;;;;;16.35;8.80;;;7.20;99.90;;;;;;5052315;28;20561;-77
2023/03/20 07:12:29;;;;;;;21.15;10.05;;;7.40;99.90;;;;;;5053971;28;20420;-77
2023/03/20 07:14:55;;;;;;;15.27;7.88;;;7.60;99.90;;;;;;5053641;28;20021;-77
2023/03/20 07:17:21;;;;;;;13.18;8.38;;;7.80;99.90;;;;;;5053116;28;20027;-77
2023/03/20 07:19:47;;;;;;;13.45;8.43;;;7.90;99.90;;;;;;5052154;28;20534;-75
2023/03/20 07:22:40;;;;;;;11.23;8.30;;;7.90;99.90;;;;;;5054225;28;20021;-78
2023/03/20 07:25:08;;;;;;;15.20;8.48;;;8.00;99.90;;;;;;5051298;28;20374;-77
2023/03/20 07:27:35;;;;;;;12.38;7.78;;;8.20;99.90;;;;;;5053343;28;20378;-76
2023/03/20 07:30:01;;;;;;;13.13;7.57;;;8.30;99.90;;;;;;5053688;28;20013;-76
2023/03/20 07:32:26;;;;;;;15.45;9.23;;;8.40;99.90;;;;;;5053004;28;20462;-77
2023/03/20 07:34:52;;;;;;;13.38;8.32;;;8.40;99.90;;;;;;5053475;28;20045;-77
2023/03/20 07:37:18;;;;;;;15.50;7.85;;;8.60;99.90;;;;;;5053709;28;20075;-78
2023/03/20 07:39:43;;;;;;;10.48;7.85;;;8.70;99.90;;;;;;5054317;28;20097;-80
2023/03/20 07:42:09;;;;;;;15.68;7.53;;;8.90;99.90;;;;;;5055127;28;20104;-77
2023/03/20 07:44:35;;;;;;;13.63;7.38;;;9.00;99.90;;;;;;5055169;28;20033;-77
2023/03/20 07:47:01;;;;;;;11.10;7.57;;;9.00;99.90;;;;;;5054664;28;20047;-77
2023/03/20 07:49:26;;;;;;;12.32;7.18;;;9.10;99.90;;;;;;5054203;28;20112;-77
2023/03/20 07:51:55;;;;;;;12.15;7.18;;;9.20;99.90;;;;;;5054920;28;20179;-78
2023/03/20 07:54:21;;;;;;;11.48;7.22;;;9.30;99.90;;;;;;5053707;28;20112;-74
2023/03/20 07:56:47;;;;;;;12.70;8.18;;;9.40;99.90;;;;;;5054507;28;20453;-76
2023/03/20 07:59:13;;;;;;;9.45;7.50;;;9.60;99.90;;;;;;5055471;28;20028;-76
2023/03/20 08:01:39;;;;;;;13.68;7.55;;;9.70;99.90;;;;;;5055115;28;20029;-77
2023/03/20 08:04:05;;;;;;;11.38;8.23;;;9.90;99.90;;;;;;5056824;28;20501;-77
2023/03/20 08:06:30;;;;;;;12.05;7.63;;;10.10;99.90;;;;;;5053409;28;20116;-76
2023/03/20 08:08:56;;;;;;;14.45;9.65;;;10.40;99.90;;;;;;5053782;28;20436;-77
2023/03/20 08:11:22;;;;;;;12.82;7.32;;;10.80;99.90;;;;;;5057541;28;20116;-77
2023/03/20 08:13:47;;;;;;;11.35;7.20;;;10.90;99.70;;;;;;5059335;28;20021;-77
2023/03/20 08:16:13;;;;;;;10.52;7.20;;;10.90;99.20;;;;;;5060249;28;20025;-78
2023/03/20 08:18:39;;;;;;;14.13;7.95;;;10.90;99.70;;;;;;5060747;28;20494;-78
2023/03/20 08:21:04;;;;;;;16.25;8.68;;;10.90;99.80;;;;;;5059138;28;20025;-78
2023/03/20 08:23:30;;;;;;;12.38;7.00;;;11.00;99.90;;;;;;5061256;28;20125;-77
2023/03/20 08:25:56;;;;;;;12.82;7.43;;;11.10;99.90;;;;;;5060552;28;20025;-77
2023/03/20 08:28:22;;;;;;;11.05;7.68;;;11.20;99.90;;;;;;5059857;28;20021;-79
2023/03/20 08:30:48;;;;;;;13.27;8.38;;;11.30;99.90;;;;;;5060521;28;20052;-77
2023/03/20 08:33:16;;;;;;;11.30;7.63;;;11.50;99.90;;;;;;5060321;28;20021;-77
2023/03/20 08:35:42;;;;;;;22.33;11.75;;;11.80;99.90;;;;;;5061142;28;20025;-78
2023/03/20 08:38:14;;;;;;;13.50;8.63;;;12.00;99.90;;;;;;5060120;28;20021;-76
2023/03/20 08:40:43;;;;;;;12.25;8.10;;;12.20;99.40;;;;;;5060714;28;20033;-75
2023/03/20 08:43:08;;;;;;;10.45;7.57;;;12.30;98.80;;;;;;5060245;28;20485;-76
2023/03/20 08:45:34;;;;;;;11.00;7.07;;;12.50;97.80;;;;;;5062327;28;20112;-78
2023/03/20 08:48:00;;;;;;;18.38;8.32;;;12.70;97.10;;;;;;5061246;28;20017;-78
2023/03/20 08:50:26;;;;;;;12.65;7.25;;;12.90;96.10;;;;;;5058691;28;20029;-77
2023/03/20 08:52:52;;;;;;;9.60;7.22;;;13.00;95.30;;;;;;5060752;28;20025;-77
2023/03/20 08:55:18;;;;;;;11.52;7.20;;;13.10;94.20;;;;;;5059034;28;20389;-80
2023/03/20 08:57:45;;;;;;;10.55;6.13;;;13.10;93.80;;;;;;5059345;28;20260;-77
2023/03/20 09:00:14;;;;;;;10.52;6.15;;;13.10;93.30;;;;;;5059294;28;20048;-78
2023/03/20 09:02:41;;;;;;;8.25;5.63;;;13.30;93.00;;;;;;5057553;28;20025;-78
2023/03/20 09:05:07;;;;;;;10.88;5.60;;;13.30;91.90;;;;;;5058313;28;20021;-78
2023/03/20 09:07:33;;;;;;;11.35;6.28;;;13.30;92.00;;;;;;5058402;28;20563;-79
2023/03/20 09:09:58;;;;;;;8.38;5.90;;;13.20;92.40;;;;;;5058653;28;20555;-78
2023/03/20 09:12:24;;;;;;;10.35;6.30;;;13.30;92.30;;;;;;5057736;28;20021;-76
2023/03/20 09:14:50;;;;;;;9.55;6.30;;;13.30;92.50;;;;;;5052542;28;20021;-76
2023/03/20 09:17:15;;;;;;;9.93;6.03;;;13.50;92.50;;;;;;5058282;28;20115;-78
2023/03/20 09:19:43;;;;;;;13.35;6.30;;;13.60;92.10;;;;;;5057693;28;20025;-80
2023/03/20 09:22:12;;;;;;;10.95;6.25;;;13.60;92.20;;;;;;5057489;28;20289;-77
2023/03/20 09:24:38;;;;;;;10.40;6.28;;;13.80;92.20;;;;;;5058388;28;20025;-79
2023/03/20 09:27:04;;;;;;;9.38;6.32;;;14.00;91.90;;;;;;5056371;28;20481;-80
2023/03/20 09:29:30;;;;;;;7.07;5.65;;;14.10;91.20;;;;;;5054946;28;20017;-77
2023/03/20 09:31:55;;;;;;;17.65;11.00;;;14.20;91.30;;;;;;5052742;28;20024;-78
2023/03/20 09:34:21;;;;;;;9.15;5.80;;;14.50;91.80;;;;;;5052573;28;20040;-77
2023/03/20 09:36:47;;;;;;;9.40;5.90;;;14.70;90.70;;;;;;5052944;28;20048;-77
2023/03/20 09:39:13;;;;;;;9.27;5.25;;;14.90;89.90;;;;;;5052193;28;20021;-77
2023/03/20 09:41:39;;;;;;;8.10;4.97;;;14.90;88.50;;;;;;5054273;28;20032;-78
2023/03/20 09:44:16;;;;;;;8.38;5.95;;;14.90;88.20;;;;;;5052519;28;20028;-77
2023/03/20 09:46:48;;;;;;;4.88;4.38;;;14.90;88.00;;;;;;5052292;28;20493;-78
2023/03/20 09:49:22;;;;;;;9.43;4.72;;;15.00;88.30;;;;;;5051601;28;20029;-78
2023/03/20 09:51:58;;;;;;;11.32;6.40;;;15.00;88.30;;;;;;5053917;28;20021;-77
2023/03/20 09:54:35;;;;;;;8.38;4.88;;;15.30;88.70;;;;;;5052030;28;20111;-77
2023/03/20 09:57:02;;;;;;;8.00;5.03;;;15.40;86.90;;;;;;5052332;28;20021;-74
2023/03/20 09:59:30;;;;;;;8.05;5.00;;;15.40;86.20;;;;;;5051497;28;20027;-75
2023/03/20 10:02:09;;;;;;;9.07;5.20;;;15.60;84.90;;;;;;5051646;28;20049;-77
2023/03/20 10:04:36;;;;;;;9.23;4.93;;;15.70;83.10;;;;;;5052621;28;20104;-75
2023/03/20 10:07:04;;;;;;;10.93;5.18;;;15.90;82.20;;;;;;5051649;28;20044;-76
2023/03/20 10:09:33;;;;;;;8.32;5.07;;;16.10;80.60;;;;;;5052404;28;20044;-76
2023/03/20 10:12:28;;;;;;;6.40;4.72;;;16.20;78.20;;;;;;5051563;28;20053;-75
2023/03/20 10:15:13;;;;;;;11.20;4.88;;;16.30;76.30;;;;;;5052439;28;20096;-76
2023/03/20 10:17:50;;;;;;;6.95;4.53;;;16.30;75.70;;;;;;5052771;28;20095;-75
2023/03/20 10:20:30;;;;;;;8.65;5.63;;;16.30;74.80;;;;;;5051370;28;20025;-76
2023/03/20 10:23:00;;;;;;;10.77;4.80;;;16.30;75.50;;;;;;5051251;28;20021;-75
2023/03/20 10:25:36;;;;;;;9.85;4.95;;;16.20;74.80;;;;;;5052136;28;20052;-76
2023/03/20 10:28:25;;;;;;;8.45;5.68;;;16.40;75.10;;;;;;5052267;28;20031;-76
2023/03/20 10:31:11;;;;;;;11.63;6.60;;;16.50;74.80;;;;;;5051171;28;20033;-76
2023/03/20 10:34:10;;;;;;;10.05;5.70;;;16.70;74.20;;;;;;5050967;28;20017;-75
2023/03/20 10:37:04;;;;;;;9.98;5.10;;;16.80;72.80;;;;;;5051843;28;20033;-75
2023/03/20 10:39:37;;;;;;;10.68;5.22;;;16.90;72.90;;;;;;5051905;28;20028;-76
2023/03/20 10:42:14;;;;;;;7.00;5.10;;;16.90;71.80;;;;;;5050971;28;20112;-75
2023/03/20 10:44:46;;;;;;;7.03;5.00;;;16.80;72.30;;;;;;5050905;28;20389;-75
2023/03/20 10:47:16;;;;;;;7.57;4.80;;;16.50;71.30;;;;;;5053119;28;20025;-76
2023/03/20 10:49:47;;;;;;;7.50;4.55;;;16.50;72.10;;;;;;5058907;28;20056;-75
2023/03/20 10:52:19;;;;;;;6.07;4.43;;;16.50;72.70;;;;;;5052961;28;20059;-76
2023/03/20 10:54:51;;;;;;;8.20;4.60;;;16.50;72.00;;;;;;5052110;28;20033;-79
2023/03/20 10:57:23;;;;;;;6.00;4.50;;;16.50;71.40;;;;;;5051988;28;20461;-76
2023/03/20 10:59:50;;;;;;;13.90;5.15;;;16.50;72.10;;;;;;5056505;28;20055;-77
2023/03/20 11:02:18;;;;;;;8.10;5.28;;;16.50;72.80;;;;;;5052952;28;20021;-77
2023/03/20 11:04:44;;;;;;;6.50;4.63;;;16.60;71.50;;;;;;5051269;28;20021;-77
2023/03/20 11:07:36;;;;;;;6.32;4.88;;;16.70;72.30;;;;;;5051466;28;20029;-78
2023/03/20 11:10:05;;;;;;;7.90;5.50;;;16.80;71.60;;;;;;5052383;28;20044;-77
2023/03/20 11:12:38;;;;;;;7.53;5.07;;;16.90;70.30;;;;;;5054551;28;20017;-77
2023/03/20 11:15:22;;;;;;;7.32;5.00;;;16.90;70.00;;;;;;5065392;28;20017;-76
2023/03/20 11:18:03;;;;;;;7.10;4.35;;;16.90;69.90;;;;;;5075891;28;20005;-76
2023/03/20 11:20:52;;;;;;;8.45;4.70;;;16.90;70.20;;;;;;5076373;28;20029;-75
2023/03/20 11:23:32;;;;;;;8.68;4.53;;;16.90;69.80;;;;;;5077106;28;20012;-74
2023/03/20 11:26:10;;;;;;;10.30;4.55;;;16.80;70.00;;;;;;5057894;28;20025;-75
2023/03/20 11:28:45;;;;;;;9.43;4.78;;;17.00;70.00;;;;;;5056684;28;20036;-75
2023/03/20 11:31:41;;;;;;;11.32;5.63;;;17.00;70.10;;;;;;5057519;28;20017;-76
2023/03/20 11:34:28;;;;;;;6.10;4.15;;;17.00;70.50;;;;;;5053861;28;20032;-75
2023/03/20 11:36:55;;;;;;;11.15;4.85;;;17.00;70.50;;;;;;5052987;28;20392;-74
2023/03/20 11:39:32;;;;;;;7.45;3.90;;;17.00;70.00;;;;;;5051196;28;20112;-77
2023/03/20 11:42:04;;;;;;;9.90;4.78;;;17.20;70.40;;;;;;5051749;28;20029;-76
2023/03/20 11:44:35;;;;;;;6.30;4.80;;;17.30;70.20;;;;;;5054488;28;20495;-75
2023/03/20 11:47:11;;;;;;;8.60;4.65;;;17.40;69.20;;;;;;5054796;28;20056;-76
2023/03/20 11:49:48;;;;;;;;;;;17.20;68.10;;;;;;5055471;28;20037;-75
2023/03/20 11:52:20;;;;;;;7.35;4.60;;;17.20;68.70;;;;;;5055412;28;19905;-75
2023/03/20 11:54:53;;;;;;;6.60;4.50;;;17.10;68.30;;;;;;5055722;28;20056;-75
2023/03/20 11:57:39;;;;;;;7.40;4.57;;;17.10;70.00;;;;;;5054917;28;20032;-75
2023/03/20 12:00:20;;;;;;;6.70;4.28;;;17.30;70.50;;;;;;5055233;28;20528;-75
2023/03/20 12:02:46;;;;;;;5.40;4.15;;;17.30;68.80;;;;;;5055587;28;20100;-75
2023/03/20 12:05:27;;;;;;;5.93;4.40;;;17.30;68.50;;;;;;5055031;28;20120;-75
2023/03/20 12:07:56;;;;;;;7.35;4.63;;;17.20;68.60;;;;;;5054698;28;20036;-75
2023/03/20 12:10:27;;;;;;;8.23;4.15;;;17.10;68.60;;;;;;5055354;28;20086;-75
2023/03/20 12:13:12;;;;;;;12.20;4.22;;;17.10;68.90;;;;;;5055439;28;20024;-74
2023/03/20 12:15:43;;;;;;;9.05;4.95;;;17.10;68.90;;;;;;5054897;28;20074;-75
2023/03/20 12:18:18;;;;;;;10.15;5.05;;;17.10;68.20;;;;;;5053626;28;20025;-75
2023/03/20 12:21:04;;;;;;;13.57;4.45;;;17.00;68.50;;;;;;5053781;28;20028;-75
2023/03/20 12:23:46;;;;;;;7.50;4.72;;;17.00;69.50;;;;;;5054085;28;20565;-77
2023/03/20 12:26:13;;;;;;;9.45;5.13;;;17.20;69.40;;;;;;5053392;28;20037;-76
2023/03/20 12:28:51;;;;;;;5.70;4.40;;;17.30;69.30;;;;;;5053273;28;20021;-75
2023/03/20 12:31:31;;;;;;;6.28;4.10;;;17.30;68.80;;;;;;5054876;28;20025;-75
2023/03/20 12:34:21;;;;;;;7.03;4.35;;;17.20;68.20;;;;;;5053674;28;20580;-76
2023/03/20 12:36:48;;;;;;;5.80;3.95;;;17.10;68.20;;;;;;5053256;28;20029;-75
2023/03/20 12:39:23;;;;;;;5.00;4.20;;;17.10;68.50;;;;;;5052940;28;20074;-75
2023/03/20 12:42:03;;;;;;;6.90;4.60;;;17.10;69.20;;;;;;5054686;28;20021;-75
2023/03/20 12:44:29;;;;;;;6.72;4.50;;;17.10;67.60;;;;;;5054523;28;20021;-76
2023/03/20 12:47:00;;;;;;;12.60;4.38;;;17.10;68.10;;;;;;5054565;28;20050;-76
2023/03/20 12:49:50;;;;;;;7.63;4.32;;;17.00;69.10;;;;;;5054026;28;20493;-75
2023/03/20 12:52:25;;;;;;;6.07;4.22;;;17.10;69.90;;;;;;5054643;28;20070;-75
2023/03/20 12:55:28;;;;;;;7.05;4.75;;;17.10;68.40;;;;;;5052466;28;20057;-75
2023/03/20 12:58:06;;;;;;;5.72;4.32;;;17.10;68.90;;;;;;5052691;28;20589;-76
2023/03/20 13:00:39;;;;;;;4.22;3.45;;;17.10;67.40;;;;;;5054309;28;20507;-75
2023/03/20 13:03:30;;;;;;;5.43;3.67;;;17.20;68.30;;;;;;5052982;28;20029;-74
2023/03/20 13:06:21;;;;;;;5.78;3.88;;;17.20;67.60;;;;;;5053751;28;20025;-76